createdAt,value
2023-05-10T04:55:22.237Z,55.30
2023-05-10T05:00:26.087Z,55.60
2023-05-10T05:05:30.567Z,54.50
2023-05-10T05:10:35.325Z,53.00
2023-05-10T05:15:38.751Z,52.20
2023-05-10T05:20:42.214Z,51.60
2023-05-10T05:25:47.255Z,51.00
2023-05-10T05:30:50.712Z,50.70
2023-05-10T05:35:54.126Z,50.30
2023-05-10T05:41:00.045Z,50.10
2023-05-10T05:46:03.456Z,49.80
2023-05-10T05:51:07.432Z,49.40
2023-05-10T05:56:12.333Z,49.50
2023-05-10T06:01:16.035Z,49.60
2023-05-10T06:06:19.449Z,49.30
2023-05-10T06:11:24.948Z,49.30
2023-05-10T06:16:28.416Z,49.30
2023-05-10T06:21:32.108Z,49.10
2023-05-10T06:26:36.886Z,49.30
2023-05-10T06:31:40.625Z,49.30
2023-05-10T06:36:44.315Z,48.80
2023-05-10T06:41:49.229Z,48.40
2023-05-10T06:46:53.594Z,48.20
2023-05-10T06:51:57.936Z,47.90
2023-05-10T06:57:04.732Z,48.50
2023-05-10T07:02:11.098Z,47.80
2023-05-10T07:07:14.651Z,47.10
2023-05-10T07:12:19.980Z,46.50
2023-05-10T07:17:23.474Z,46.30
2023-05-10T07:22:27.801Z,46.10
2023-05-10T07:27:33.586Z,45.60
2023-05-10T07:32:37.430Z,45.30
2023-05-10T07:37:41.770Z,45.00
2023-05-10T07:42:46.977Z,45.10
2023-05-10T07:47:50.707Z,45.30
2023-05-10T07:52:54.187Z,44.90
2023-05-10T07:57:58.971Z,45.00
2023-05-10T08:03:03.730Z,45.10
2023-05-10T08:08:07.350Z,44.80
2023-05-10T08:13:12.940Z,44.60
2023-05-10T08:18:17.531Z,44.60
2023-05-10T08:23:22.243Z,44.50
2023-05-10T08:28:27.087Z,44.30
2023-05-10T08:33:31.140Z,43.90
2023-05-10T08:38:34.723Z,43.60
2023-05-10T08:43:43.080Z,43.80
2023-05-10T08:48:47.419Z,44.00
2023-05-10T08:53:52.797Z,43.90
2023-05-10T08:58:59.030Z,44.50
2023-05-10T09:04:02.738Z,43.70
2023-05-10T09:09:06.377Z,43.40
2023-05-10T09:14:13.473Z,43.60
2023-05-10T09:19:17.487Z,43.60
2023-05-10T09:24:21.335Z,43.70
2023-05-10T09:29:26.393Z,43.40
2023-05-10T09:34:32.870Z,43.70
2023-05-10T09:39:38.887Z,43.30
2023-05-10T09:44:44.568Z,43.10
2023-05-10T09:49:52.082Z,43.10
2023-05-10T09:54:56.508Z,43.40
2023-05-10T10:00:05.976Z,42.50
2023-05-10T10:05:10.367Z,42.00
2023-05-10T10:10:14.727Z,41.40
2023-05-10T10:15:20.275Z,40.60
2023-05-10T10:20:26.096Z,40.30
2023-05-10T10:25:30.283Z,40.30
2023-05-10T10:30:43.413Z,39.80
2023-05-10T10:35:48.534Z,40.80
2023-05-10T10:41:04.390Z,40.30
2023-05-10T10:46:16.392Z,39.10
2023-05-10T10:51:20.314Z,39.30
2023-05-10T10:56:25.285Z,39.90
2023-05-10T11:01:35.177Z,39.50
2023-05-10T11:06:38.790Z,37.80
2023-05-10T11:11:53.221Z,37.60
2023-05-10T11:16:58.496Z,37.60
2023-05-10T11:22:15.228Z,36.40
2023-05-10T11:27:18.655Z,36.50
2023-05-10T11:32:23.951Z,35.60
2023-05-10T11:37:33.304Z,36.00
2023-05-10T11:42:36.721Z,34.90
2023-05-10T11:47:43.789Z,34.90
2023-05-10T11:52:47.221Z,34.90
2023-05-10T11:57:54.251Z,34.40
2023-05-10T12:02:59.121Z,34.80
2023-05-10T12:08:16.353Z,34.60
2023-05-10T12:13:22.013Z,33.80
2023-05-10T12:18:27.320Z,32.90
2023-05-10T12:23:30.781Z,33.00
2023-05-10T12:33:57.321Z,31.80
2023-05-10T12:39:05.752Z,32.40
2023-05-10T12:44:09.334Z,32.00
2023-05-10T12:49:14.227Z,31.90
2023-05-10T12:54:17.934Z,31.90
2023-05-10T12:59:21.357Z,31.40
2023-05-10T13:04:26.408Z,31.50
2023-05-10T13:09:30.633Z,31.10
2023-05-10T13:14:34.349Z,31.60
2023-05-10T13:19:39.197Z,31.00
2023-05-10T13:24:42.629Z,31.10
2023-05-10T13:29:47.462Z,31.40
2023-05-10T13:34:53.338Z,31.20
2023-05-10T13:39:56.762Z,30.80
2023-05-10T13:45:00.279Z,30.80
2023-05-10T13:50:05.645Z,30.40
2023-05-10T13:55:09.913Z,30.30
2023-05-10T14:00:14.431Z,30.00
2023-05-10T14:05:21.006Z,30.40
2023-05-10T14:10:28.813Z,29.90
2023-05-10T14:15:32.235Z,29.90
2023-05-10T14:20:37.097Z,29.70
2023-05-10T14:25:42.002Z,29.60
2023-05-10T14:30:45.497Z,28.30
2023-05-10T14:35:50.973Z,27.70
2023-05-10T14:40:54.629Z,27.20
2023-05-10T14:45:58.050Z,24.50
2023-05-10T14:51:03.015Z,25.30
2023-05-10T14:56:06.686Z,25.30
2023-05-10T15:01:10.315Z,24.90
2023-05-10T15:06:16.555Z,24.30
2023-05-10T15:11:19.941Z,24.00
2023-05-10T15:16:23.446Z,23.90
2023-05-10T15:21:29.613Z,24.40
2023-05-10T15:26:33.650Z,25.20
2023-05-10T15:31:37.401Z,25.40
2023-05-10T15:36:42.174Z,26.00
2023-05-10T15:41:46.096Z,26.00
2023-05-10T15:46:49.745Z,26.50
2023-05-10T15:51:54.952Z,25.60
2023-05-10T15:56:58.364Z,23.90
2023-05-10T16:02:04.062Z,22.90
2023-05-10T16:07:08.909Z,21.80
2023-05-10T16:12:12.605Z,21.80
2023-05-10T16:17:16.421Z,21.90
2023-05-10T16:22:22.356Z,20.70
2023-05-10T16:27:28.653Z,20.20
2023-05-10T16:32:32.139Z,20.50
2023-05-10T16:37:36.937Z,20.90
2023-05-10T16:42:40.952Z,21.80
2023-05-10T16:47:44.555Z,22.90
2023-05-10T16:52:49.368Z,23.70
2023-05-10T16:57:53.132Z,23.90
2023-05-10T17:02:56.579Z,24.30
2023-05-10T17:08:01.821Z,24.90
2023-05-10T17:13:05.292Z,25.50
2023-05-10T17:18:10.308Z,26.10
2023-05-10T17:23:15.136Z,26.70
2023-05-10T17:28:18.548Z,27.40
2023-05-10T17:33:22.210Z,28.10
2023-05-10T17:38:26.998Z,28.60
2023-05-10T17:43:30.685Z,29.20
2023-05-10T17:48:36.522Z,29.60
2023-05-10T17:53:43.040Z,30.00
2023-05-10T17:58:46.832Z,30.40
2023-05-10T18:03:51.855Z,31.00
2023-05-10T18:08:57.172Z,31.30
2023-05-10T18:14:00.862Z,31.70
2023-05-10T18:19:04.469Z,32.00
2023-05-10T18:24:10.308Z,32.40
2023-05-10T18:29:14.028Z,32.50
2023-05-10T18:34:17.577Z,32.80
2023-05-10T18:39:22.682Z,33.20
2023-05-10T18:44:27.084Z,33.60
2023-05-10T18:49:30.721Z,33.90
2023-05-10T18:54:35.508Z,35.30
2023-05-10T18:59:39.089Z,34.70
2023-05-10T19:04:42.567Z,35.00
2023-05-10T19:09:47.440Z,35.30
2023-05-10T19:14:51.281Z,35.80
2023-05-10T19:19:56.322Z,36.00
2023-05-10T19:25:01.580Z,36.20
2023-05-10T19:30:06.124Z,36.50
2023-05-10T19:35:11.578Z,36.90
2023-05-10T19:40:17.452Z,37.10
2023-05-10T19:45:21.148Z,37.50
2023-05-10T19:50:24.760Z,37.70
2023-05-10T19:55:32.025Z,37.90
2023-05-10T20:00:36.388Z,38.20
2023-05-10T20:05:40.369Z,38.80
2023-05-10T20:10:45.187Z,39.00
2023-05-10T20:15:49.007Z,39.10
2023-05-10T20:20:55.423Z,40.40
2023-05-10T20:26:00.455Z,41.80
2023-05-10T20:31:04.115Z,41.30
2023-05-10T20:36:09.638Z,41.50
2023-05-10T20:41:14.377Z,41.40
2023-05-10T20:46:17.856Z,42.80
2023-05-10T20:51:21.628Z,43.20
2023-05-10T20:56:27.186Z,42.90
2023-05-10T21:01:31.767Z,43.00
2023-05-10T21:06:35.239Z,42.50
2023-05-10T21:11:40.058Z,43.80
2023-05-10T21:16:43.732Z,43.70
2023-05-10T21:21:47.441Z,42.90
2023-05-10T21:26:52.227Z,42.40
2023-05-10T21:31:55.938Z,41.90
2023-05-10T21:36:59.595Z,41.90
2023-05-10T21:42:04.552Z,41.60
2023-05-10T21:47:08.269Z,41.60
2023-05-10T21:52:11.754Z,41.80
2023-05-10T21:57:17.096Z,42.20
2023-05-10T22:02:20.468Z,42.10
2023-05-10T22:07:24.000Z,41.70
2023-05-10T22:12:28.811Z,41.70
2023-05-10T22:17:32.344Z,41.50
2023-05-10T22:22:36.578Z,41.40
2023-05-10T22:27:41.481Z,41.10
